Bookmark and Share
Track history (hours):
 

Pelangi

Last reported at 2012-Aug-12 08:32 UTC. Time now 2014-Apr-16 05:17 UTC.
Position N 37°44' W 008°49'.
Warning: this ship's position is years out of date!

Length 13 m.

Type: Sailing vessel. MMSI: 244615648.

NotesDate/timePositionNaut miles runAvg speedWind from/ knotsBaromVisibWave heightAir tempDewpointWater temp
2012-Aug-12 08:32N 37°44' W 008°49'5 5.2
2012-Aug-12 07:33N 37°49' W 008°49'5 4.6
2012-Aug-12 06:32N 37°53' W 008°51'4 3.8
2012-Aug-12 05:33N 37°57' W 008°52'0 0.0
2012-Aug-12 04:36N 37°57' W 008°52'0 0.0
2012-Aug-12 03:33N 37°57' W 008°52'0 0.0
2012-Aug-12 02:33N 37°57' W 008°52'0 0.0
2012-Aug-12 01:33N 37°57' W 008°52'0 0.0
2012-Aug-12 00:33N 37°57' W 008°52'0 0.0
2012-Aug-11 23:33N 37°57' W 008°52'0 0.0
2012-Aug-11 22:33N 37°57' W 008°52'0 0.0
2012-Aug-11 21:33N 37°57' W 008°52'0 0.0
2012-Aug-11 20:33N 37°57' W 008°52'0 0.0
2012-Aug-11 19:33N 37°57' W 008°52'0 0.0
2012-Aug-11 18:33N 37°57' W 008°52'0 0.0
2012-Aug-11 17:33N 37°57' W 008°52'0 0.0
2012-Aug-11 16:33N 37°57' W 008°52'0 0.0
2012-Aug-11 15:33N 37°57' W 008°52'0 0.0
2012-Aug-11 14:33N 37°57' W 008°52'0 0.0
2012-Aug-11 13:33N 37°57' W 008°52'0 0.0
2012-Aug-11 12:33N 37°57' W 008°52'0 0.0
2012-Aug-11 11:33N 37°57' W 008°52'0 0.0
2012-Aug-11 10:36N 37°57' W 008°52'0 0.0
2012-Aug-11 09:30N 37°57' W 008°52'0 0.0
2012-Aug-11 08:33N 37°57' W 008°52'0 0.0
2012-Aug-11 07:33N 37°57' W 008°52'0 0.0
2012-Aug-11 06:30N 37°57' W 008°52'0 0.0
2012-Aug-11 05:33N 37°57' W 008°52'0 0.0
2012-Aug-11 04:36N 37°57' W 008°52'0 0.0
2012-Aug-11 03:33N 37°57' W 008°52'0 0.0
2012-Aug-11 02:33N 37°57' W 008°52'0 0.0
2012-Aug-11 01:33N 37°57' W 008°52'0 0.0
2012-Aug-11 00:33N 37°57' W 008°52'0 0.0
2012-Aug-10 23:30N 37°57' W 008°52'0 0.0
2012-Aug-10 22:33N 37°57' W 008°52'0 0.0
2012-Aug-10 21:33N 37°57' W 008°52'0 0.0
2012-Aug-10 20:33N 37°57' W 008°52'0 0.0
2012-Aug-10 19:33N 37°57' W 008°52'0 0.0
2012-Aug-10 18:30N 37°57' W 008°52'0 0.0
2012-Aug-10 17:33N 37°57' W 008°52'  
2012-Aug-03 03:33N 38°42' W 009°10'0 0.0
2012-Aug-02 16:28N 38°42' W 009°10'3 3.2
2012-Aug-02 15:33N 38°41' W 009°14'7 7.4
2012-Aug-02 14:34N 38°41' W 009°23'7 6.7
2012-Aug-02 13:33N 38°42' W 009°32'  

Dump ship's entire track history

sailing weather and tide predictions

Pelangi — PH4136 — position and weather